Maersk Dayton — DDSC2 — position and weather

sailwx.info

Track history (hours):
 
Tides and Currents Weather Stations Pressure Air Temp Water Temp Dewpoint Dewpoint Depression Visibility Wind Speed Wind Dir Waves Ship Positions

Maersk Dayton

Last reported at 2017-May-26 23:58 UTC. Time now 2017-May-30 10:57 UTC.
Position N 01°16' E 104°11'.

Length 281 m; beam 32.2 m; draft 12.5 m.

Type: Ship. MMSI: 218024000.

Date/timePositionNaut miles runAvg speedWind from/ knotsBaromVisibWave heightAir tempDewpointWater temp
2017-May-26 23:58N 01°16' E 104°11'919.5
2017-May-26 23:30N 01°15' E 104°02'816.3
2017-May-26 23:00N 01°13' E 103°54'3 6.9
2017-May-26 22:31N 01°15' E 103°51'2 3.1
2017-May-26 22:00N 01°16' E 103°50'0 0.2
2017-May-26 21:30N 01°16' E 103°51'0 0.1
2017-May-26 20:58N 01°16' E 103°50'0 0.0
2017-May-26 20:29N 01°16' E 103°50'0 0.0
2017-May-26 20:00N 01°16' E 103°50'0 0.0
2017-May-26 19:30N 01°16' E 103°50'0 0.0
2017-May-26 19:00N 01°16' E 103°50'0 0.0
2017-May-26 18:30N 01°16' E 103°50'0 0.0
2017-May-26 18:00N 01°16' E 103°50'0 0.0
2017-May-26 17:30N 01°16' E 103°50'0 0.0
2017-May-26 16:54N 01°16' E 103°50'0 0.0
2017-May-26 16:30N 01°16' E 103°50'0 0.0
2017-May-26 16:00N 01°16' E 103°50'0 0.0
2017-May-26 15:30N 01°16' E 103°50'0 0.0
2017-May-26 14:58N 01°16' E 103°50'0 0.0
2017-May-26 14:00N 01°16' E 103°50'0 0.0
2017-May-26 13:30N 01°16' E 103°50'0 0.0
2017-May-26 13:00N 01°16' E 103°50'0 0.0
2017-May-26 12:30N 01°16' E 103°50'0 0.0
2017-May-26 12:00N 01°16' E 103°50'0 0.0
2017-May-26 11:30N 01°16' E 103°50'0 0.0
2017-May-26 10:57N 01°16' E 103°50'0 0.0
2017-May-26 10:28N 01°16' E 103°50'0 0.2
2017-May-26 10:00N 01°16' E 103°50'2 4.4
2017-May-26 09:30N 01°14' E 103°52'4 7.6
2017-May-26 09:00N 01°12' E 103°49'5 9.4
2017-May-26 08:30N 01°16' E 103°46'0 0.9
2017-May-26 07:59N 01°17' E 103°47'0 0.0
2017-May-26 07:29N 01°17' E 103°47'0 0.0
2017-May-26 06:59N 01°17' E 103°47'0 0.0
2017-May-26 06:29N 01°17' E 103°47'0 0.0
2017-May-26 05:59N 01°17' E 103°47'0 0.0
2017-May-26 05:29N 01°17' E 103°47'0 0.0
2017-May-26 04:59N 01°17' E 103°47'0 0.0
2017-May-26 04:29N 01°17' E 103°47'0 0.0
2017-May-26 03:59N 01°17' E 103°47'0 0.0
2017-May-26 03:29N 01°17' E 103°47'0 0.0
2017-May-26 02:59N 01°17' E 103°47'0 0.0
2017-May-26 02:29N 01°17' E 103°47'0 0.0
2017-May-26 01:59N 01°17' E 103°47'0 0.0
2017-May-26 01:26N 01°17' E 103°47'0 0.0
2017-May-26 00:59N 01°17' E 103°47'0 0.0
2017-May-26 00:29N 01°17' E 103°47'0 0.0
2017-May-25 23:59N 01°17' E 103°47'0 0.0
2017-May-25 23:29N 01°17' E 103°47'0 0.0
2017-May-25 22:58N 01°17' E 103°47'0 0.0
2017-May-25 22:28N 01°17' E 103°47'0 0.0
2017-May-25 21:58N 01°17' E 103°47'0 0.0
2017-May-25 21:28N 01°17' E 103°47'0 0.0
2017-May-25 20:58N 01°17' E 103°47'0 0.0
2017-May-25 20:25N 01°17' E 103°47'0 0.0
2017-May-25 19:58N 01°17' E 103°47'0 0.0
2017-May-25 19:28N 01°17' E 103°47'0 0.0
2017-May-25 18:58N 01°17' E 103°47'0 0.0
2017-May-25 18:25N 01°17' E 103°47'0 0.0
2017-May-25 18:00N 01°17' E 103°47'0 0.0
2017-May-25 17:24N 01°17' E 103°47'0 0.0
2017-May-25 17:00N 01°17' E 103°47'0 0.0
2017-May-25 16:30N 01°17' E 103°47'0 0.0
2017-May-25 16:00N 01°17' E 103°47'0 0.0
2017-May-25 15:30N 01°17' E 103°47'0 0.0
2017-May-25 15:00N 01°17' E 103°47'0 0.0
2017-May-25 14:00N 01°17' E 103°47'0 0.0
2017-May-25 13:30N 01°17' E 103°47'0 0.0
2017-May-25 13:00N 01°17' E 103°47'0 0.0
2017-May-25 12:30N 01°17' E 103°47'0 0.0
2017-May-25 12:00N 01°17' E 103°47'0 0.0
2017-May-25 11:30N 01°17' E 103°47'1 1.8
2017-May-25 11:00N 01°16' E 103°46'2 4.8
2017-May-25 10:30N 01°14' E 103°47'611.9
2017-May-25 10:00N 01°14' E 103°53'5 9.4
2017-May-25 09:30N 01°15' E 103°58'611.7
2017-May-25 08:59N 01°16' E 104°04'  
2017-May-19 21:17N 33°19' E 134°27'620.3
2017-May-19 21:00N 33°23' E 134°31'1320.7
2017-May-19 20:23N 33°34' E 134°39'820.7
2017-May-19 20:00N 33°40' E 134°45'2020.1
2017-May-19 18:59N 33°59' E 134°54'919.0
2017-May-19 18:30N 34°08' E 134°56'713.7
2017-May-19 18:00N 34°15' E 134°58'816.1
2017-May-19 17:30N 34°23' E 135°01'918.5
2017-May-19 17:00N 34°29' E 135°09'917.9
2017-May-19 16:30N 34°36' E 135°16'510.8
2017-May-19 16:00N 34°41' E 135°18'1 1.0
2017-May-19 15:29N 34°41' E 135°17'0 0.0
2017-May-19 14:56N 34°41' E 135°17'0 0.0
2017-May-19 13:56N 34°41' E 135°17'0 0.0
2017-May-19 13:26N 34°41' E 135°17'0 0.0
2017-May-19 12:50N 34°41' E 135°17'0 0.0
2017-May-19 12:26N 34°41' E 135°17'0 0.0
2017-May-19 11:56N 34°41' E 135°17'0 0.0
2017-May-19 11:26N 34°41' E 135°17'0 0.0
2017-May-19 10:59N 34°41' E 135°17'0 0.0
2017-May-19 10:26N 34°41' E 135°17'0 0.0
2017-May-19 09:59N 34°41' E 135°17'0 0.0
2017-May-19 09:26N 34°41' E 135°17'0 0.0
2017-May-19 08:56N 34°41' E 135°17'0 0.0
2017-May-19 08:26N 34°41' E 135°17'0 0.0
2017-May-19 07:56N 34°41' E 135°17'0 0.0
2017-May-19 07:30N 34°41' E 135°17'0 0.0
2017-May-19 06:52N 34°41' E 135°17'0 0.0
2017-May-19 06:28N 34°41' E 135°17'0 0.0
2017-May-19 05:58N 34°41' E 135°17'0 0.0
2017-May-19 05:22N 34°41' E 135°17'0 0.0
2017-May-19 04:52N 34°41' E 135°17'0 0.0
2017-May-19 04:28N 34°41' E 135°17'0 0.0
2017-May-19 03:46N 34°41' E 135°17'0 0.0
2017-May-19 03:28N 34°41' E 135°17'0 0.0
2017-May-19 02:58N 34°41' E 135°17'0 0.0
2017-May-19 02:28N 34°41' E 135°17'0 0.0
2017-May-19 01:58N 34°41' E 135°17'0 0.0
2017-May-19 01:28N 34°41' E 135°17'0 0.0
2017-May-19 00:58N 34°41' E 135°17'0 0.0
2017-May-19 00:28N 34°41' E 135°17'0 0.0
2017-May-18 23:58N 34°41' E 135°17'0 0.0
2017-May-18 23:28N 34°41' E 135°17'0 0.1
2017-May-18 23:00N 34°41' E 135°17'1 2.8
2017-May-18 22:30N 34°40' E 135°18'2 4.7
2017-May-18 22:00N 34°38' E 135°18'0 0.1
2017-May-18 21:28N 34°38' E 135°18'0 0.0
2017-May-18 20:58N 34°38' E 135°18'0 0.0
2017-May-18 20:28N 34°38' E 135°18'0 0.1
2017-May-18 19:52N 34°38' E 135°17'0 0.0
2017-May-18 19:28N 34°38' E 135°17'0 0.0
2017-May-18 18:58N 34°38' E 135°17'0 0.0
2017-May-18 18:22N 34°38' E 135°17'0 0.0
2017-May-18 17:58N 34°38' E 135°17'0 0.0
2017-May-18 17:28N 34°38' E 135°17'0 0.0
2017-May-18 16:52N 34°38' E 135°17'0 0.0
2017-May-18 16:28N 34°38' E 135°17'0 0.0
2017-May-18 15:58N 34°38' E 135°17'0 0.1
2017-May-18 15:28N 34°38' E 135°18'0 0.1
2017-May-18 14:52N 34°38' E 135°18'0 0.1
2017-May-18 13:58N 34°38' E 135°18'0 0.0
2017-May-18 13:28N 34°38' E 135°18'0 0.0
2017-May-18 12:58N 34°38' E 135°18'0 0.2
2017-May-18 12:28N 34°38' E 135°18'0 0.0
2017-May-18 11:52N 34°38' E 135°18'0 0.0
2017-May-18 11:28N 34°38' E 135°18'0 0.0
2017-May-18 10:28N 34°38' E 135°18'0 0.0
2017-May-18 09:52N 34°38' E 135°18'0 0.0
2017-May-18 09:28N 34°38' E 135°18'0 0.0
2017-May-18 08:58N 34°38' E 135°18'0 0.0
2017-May-18 08:28N 34°38' E 135°18'0 0.0
2017-May-18 07:58N 34°38' E 135°18'0 0.0
2017-May-18 07:28N 34°38' E 135°18'0 0.0
2017-May-18 06:46N 34°38' E 135°18'0 0.0
2017-May-18 06:28N 34°38' E 135°18'0 0.0
2017-May-18 05:52N 34°38' E 135°18'0 0.0
2017-May-18 04:46N 34°38' E 135°18'0 0.0
2017-May-18 04:28N 34°38' E 135°18'0 0.0
2017-May-18 03:58N 34°38' E 135°18'0 0.1
2017-May-18 03:30N 34°38' E 135°18'0 0.7
2017-May-18 03:00N 34°38' E 135°17'4 8.0
2017-May-18 02:30N 34°34' E 135°15'918.2
2017-May-18 02:00N 34°27' E 135°08'1018.8
2017-May-18 01:30N 34°20' E 135°01'816.2
2017-May-18 01:00N 34°12' E 134°59'611.9
2017-May-18 00:30N 34°06' E 135°00'815.8
2017-May-18 00:00N 33°58' E 134°59'  
Track history (hours):
 
Tides and Currents Weather Stations Pressure Air Temp Water Temp Dewpoint Dewpoint Depression Visibility Wind Speed Wind Dir Waves Ship Positions

Maersk Dayton

Last reported at 2017-May-26 23:58 UTC. Time now 2017-May-30 10:57 UTC.
Position N 01°16' E 104°11'.

Length 281 m; beam 32.2 m; draft 12.5 m.

Type: Ship. MMSI: 218024000.

Date/timePositionNaut miles runAvg speedWind from/ knotsBaromVisibWave heightAir tempDewpointWater temp
2017-May-26 23:58N 01°16' E 104°11'919.5
2017-May-26 23:30N 01°15' E 104°02'816.3
2017-May-26 23:00N 01°13' E 103°54'3 6.9
2017-May-26 22:31N 01°15' E 103°51'2 3.1
2017-May-26 22:00N 01°16' E 103°50'0 0.2
2017-May-26 21:30N 01°16' E 103°51'0 0.1
2017-May-26 20:58N 01°16' E 103°50'0 0.0
2017-May-26 20:29N 01°16' E 103°50'0 0.0
2017-May-26 20:00N 01°16' E 103°50'0 0.0
2017-May-26 19:30N 01°16' E 103°50'0 0.0
2017-May-26 19:00N 01°16' E 103°50'0 0.0
2017-May-26 18:30N 01°16' E 103°50'0 0.0
2017-May-26 18:00N 01°16' E 103°50'0 0.0
2017-May-26 17:30N 01°16' E 103°50'0 0.0
2017-May-26 16:54N 01°16' E 103°50'0 0.0
2017-May-26 16:30N 01°16' E 103°50'0 0.0
2017-May-26 16:00N 01°16' E 103°50'0 0.0
2017-May-26 15:30N 01°16' E 103°50'0 0.0
2017-May-26 14:58N 01°16' E 103°50'0 0.0
2017-May-26 14:00N 01°16' E 103°50'0 0.0
2017-May-26 13:30N 01°16' E 103°50'0 0.0
2017-May-26 13:00N 01°16' E 103°50'0 0.0
2017-May-26 12:30N 01°16' E 103°50'0 0.0
2017-May-26 12:00N 01°16' E 103°50'0 0.0
2017-May-26 11:30N 01°16' E 103°50'0 0.0
2017-May-26 10:57N 01°16' E 103°50'0 0.0
2017-May-26 10:28N 01°16' E 103°50'0 0.2
2017-May-26 10:00N 01°16' E 103°50'2 4.4
2017-May-26 09:30N 01°14' E 103°52'4 7.6
2017-May-26 09:00N 01°12' E 103°49'5 9.4
2017-May-26 08:30N 01°16' E 103°46'0 0.9
2017-May-26 07:59N 01°17' E 103°47'0 0.0
2017-May-26 07:29N 01°17' E 103°47'0 0.0
2017-May-26 06:59N 01°17' E 103°47'0 0.0
2017-May-26 06:29N 01°17' E 103°47'0 0.0
2017-May-26 05:59N 01°17' E 103°47'0 0.0
2017-May-26 05:29N 01°17' E 103°47'0 0.0
2017-May-26 04:59N 01°17' E 103°47'0 0.0
2017-May-26 04:29N 01°17' E 103°47'0 0.0
2017-May-26 03:59N 01°17' E 103°47'0 0.0
2017-May-26 03:29N 01°17' E 103°47'0 0.0
2017-May-26 02:59N 01°17' E 103°47'0 0.0
2017-May-26 02:29N 01°17' E 103°47'0 0.0
2017-May-26 01:59N 01°17' E 103°47'0 0.0
2017-May-26 01:26N 01°17' E 103°47'0 0.0
2017-May-26 00:59N 01°17' E 103°47'0 0.0
2017-May-26 00:29N 01°17' E 103°47'0 0.0
2017-May-25 23:59N 01°17' E 103°47'0 0.0
2017-May-25 23:29N 01°17' E 103°47'0 0.0
2017-May-25 22:58N 01°17' E 103°47'0 0.0
2017-May-25 22:28N 01°17' E 103°47'0 0.0
2017-May-25 21:58N 01°17' E 103°47'0 0.0
2017-May-25 21:28N 01°17' E 103°47'0 0.0
2017-May-25 20:58N 01°17' E 103°47'0 0.0
2017-May-25 20:25N 01°17' E 103°47'0 0.0
2017-May-25 19:58N 01°17' E 103°47'0 0.0
2017-May-25 19:28N 01°17' E 103°47'0 0.0
2017-May-25 18:58N 01°17' E 103°47'0 0.0
2017-May-25 18:25N 01°17' E 103°47'0 0.0
2017-May-25 18:00N 01°17' E 103°47'0 0.0
2017-May-25 17:24N 01°17' E 103°47'0 0.0
2017-May-25 17:00N 01°17' E 103°47'0 0.0
2017-May-25 16:30N 01°17' E 103°47'0 0.0
2017-May-25 16:00N 01°17' E 103°47'0 0.0
2017-May-25 15:30N 01°17' E 103°47'0 0.0
2017-May-25 15:00N 01°17' E 103°47'0 0.0
2017-May-25 14:00N 01°17' E 103°47'0 0.0
2017-May-25 13:30N 01°17' E 103°47'0 0.0
2017-May-25 13:00N 01°17' E 103°47'0 0.0
2017-May-25 12:30N 01°17' E 103°47'0 0.0
2017-May-25 12:00N 01°17' E 103°47'0 0.0
2017-May-25 11:30N 01°17' E 103°47'1 1.8
2017-May-25 11:00N 01°16' E 103°46'2 4.8
2017-May-25 10:30N 01°14' E 103°47'611.9
2017-May-25 10:00N 01°14' E 103°53'5 9.4
2017-May-25 09:30N 01°15' E 103°58'611.7
2017-May-25 08:59N 01°16' E 104°04'  
2017-May-19 21:17N 33°19' E 134°27'620.3
2017-May-19 21:00N 33°23' E 134°31'1320.7
2017-May-19 20:23N 33°34' E 134°39'820.7
2017-May-19 20:00N 33°40' E 134°45'2020.1
2017-May-19 18:59N 33°59' E 134°54'919.0
2017-May-19 18:30N 34°08' E 134°56'713.7
2017-May-19 18:00N 34°15' E 134°58'816.1
2017-May-19 17:30N 34°23' E 135°01'918.5
2017-May-19 17:00N 34°29' E 135°09'917.9
2017-May-19 16:30N 34°36' E 135°16'510.8
2017-May-19 16:00N 34°41' E 135°18'1 1.0
2017-May-19 15:29N 34°41' E 135°17'0 0.0
2017-May-19 14:56N 34°41' E 135°17'0 0.0
2017-May-19 13:56N 34°41' E 135°17'0 0.0
2017-May-19 13:26N 34°41' E 135°17'0 0.0
2017-May-19 12:50N 34°41' E 135°17'0 0.0
2017-May-19 12:26N 34°41' E 135°17'0 0.0
2017-May-19 11:56N 34°41' E 135°17'0 0.0
2017-May-19 11:26N 34°41' E 135°17'0 0.0
2017-May-19 10:59N 34°41' E 135°17'0 0.0
2017-May-19 10:26N 34°41' E 135°17'0 0.0
2017-May-19 09:59N 34°41' E 135°17'0 0.0
2017-May-19 09:26N 34°41' E 135°17'0 0.0
2017-May-19 08:56N 34°41' E 135°17'0 0.0
2017-May-19 08:26N 34°41' E 135°17'0 0.0
2017-May-19 07:56N 34°41' E 135°17'0 0.0
2017-May-19 07:30N 34°41' E 135°17'0 0.0
2017-May-19 06:52N 34°41' E 135°17'0 0.0
2017-May-19 06:28N 34°41' E 135°17'0 0.0
2017-May-19 05:58N 34°41' E 135°17'0 0.0
2017-May-19 05:22N 34°41' E 135°17'0 0.0
2017-May-19 04:52N 34°41' E 135°17'0 0.0
2017-May-19 04:28N 34°41' E 135°17'0 0.0
2017-May-19 03:46N 34°41' E 135°17'0 0.0
2017-May-19 03:28N 34°41' E 135°17'0 0.0
2017-May-19 02:58N 34°41' E 135°17'0 0.0
2017-May-19 02:28N 34°41' E 135°17'0 0.0
2017-May-19 01:58N 34°41' E 135°17'0 0.0
2017-May-19 01:28N 34°41' E 135°17'0 0.0
2017-May-19 00:58N 34°41' E 135°17'0 0.0
2017-May-19 00:28N 34°41' E 135°17'0 0.0
2017-May-18 23:58N 34°41' E 135°17'0 0.0
2017-May-18 23:28N 34°41' E 135°17'0 0.1
2017-May-18 23:00N 34°41' E 135°17'1 2.8
2017-May-18 22:30N 34°40' E 135°18'2 4.7
2017-May-18 22:00N 34°38' E 135°18'0 0.1
2017-May-18 21:28N 34°38' E 135°18'0 0.0
2017-May-18 20:58N 34°38' E 135°18'0 0.0
2017-May-18 20:28N 34°38' E 135°18'0 0.1
2017-May-18 19:52N 34°38' E 135°17'0 0.0
2017-May-18 19:28N 34°38' E 135°17'0 0.0
2017-May-18 18:58N 34°38' E 135°17'0 0.0
2017-May-18 18:22N 34°38' E 135°17'0 0.0
2017-May-18 17:58N 34°38' E 135°17'0 0.0
2017-May-18 17:28N 34°38' E 135°17'0 0.0
2017-May-18 16:52N 34°38' E 135°17'0 0.0
2017-May-18 16:28N 34°38' E 135°17'0 0.0
2017-May-18 15:58N 34°38' E 135°17'0 0.1
2017-May-18 15:28N 34°38' E 135°18'0 0.1
2017-May-18 14:52N 34°38' E 135°18'0 0.1
2017-May-18 13:58N 34°38' E 135°18'0 0.0
2017-May-18 13:28N 34°38' E 135°18'0 0.0
2017-May-18 12:58N 34°38' E 135°18'0 0.2
2017-May-18 12:28N 34°38' E 135°18'0 0.0
2017-May-18 11:52N 34°38' E 135°18'0 0.0
2017-May-18 11:28N 34°38' E 135°18'0 0.0
2017-May-18 10:28N 34°38' E 135°18'0 0.0
2017-May-18 09:52N 34°38' E 135°18'0 0.0
2017-May-18 09:28N 34°38' E 135°18'0 0.0
2017-May-18 08:58N 34°38' E 135°18'0 0.0
2017-May-18 08:28N 34°38' E 135°18'0 0.0
2017-May-18 07:58N 34°38' E 135°18'0 0.0
2017-May-18 07:28N 34°38' E 135°18'0 0.0
2017-May-18 06:46N 34°38' E 135°18'0 0.0
2017-May-18 06:28N 34°38' E 135°18'0 0.0
2017-May-18 05:52N 34°38' E 135°18'0 0.0
2017-May-18 04:46N 34°38' E 135°18'0 0.0
2017-May-18 04:28N 34°38' E 135°18'0 0.0
2017-May-18 03:58N 34°38' E 135°18'0 0.1
2017-May-18 03:30N 34°38' E 135°18'0 0.7
2017-May-18 03:00N 34°38' E 135°17'4 8.0
2017-May-18 02:30N 34°34' E 135°15'918.2
2017-May-18 02:00N 34°27' E 135°08'1018.8
2017-May-18 01:30N 34°20' E 135°01'816.2
2017-May-18 01:00N 34°12' E 134°59'611.9
2017-May-18 00:30N 34°06' E 135°00'815.8
2017-May-18 00:00N 33°58' E 134°59'  

Dump ship's entire track history